Terminal Aerodrome Forecast
Issued by NWS Mt. Holly, NJ

Home | Current Version | Previous Version | Text Only | Print | Product List | Glossary On
Versions: 1 2 3 4 5 6 7 8 9 10 11 12 13 14 15 16 17 18 19 20 21 22 23 24 25 26 27 28 29 30 31 32 33 34
370
FTUS41 KPHI 240521
TAFPHL
TAF
KPHL 240521Z 2406/2512 03018G28KT P6SM -RA OVC015
     FM241200 36015G25KT P6SM -RADZ OVC015
     FM241700 33015G25KT P6SM -SHRA OVC025
     FM242300 31012G22KT P6SM BKN035=

USA.gov is the U.S. government's official web portal to all federal, state and local government web resources and services.